Savannah, Georgia
Current Conditions -  °F | °C
As of 7:58 AM on Thursday 30 Oct 2014 (Local Time) from KSVN Reporting Station
Scattered Clouds Scattered Clouds  
Wind Chill: 63°   Ceiling: Unl
Heat Index: 63°   Visibility: 10mi
Dew Point: 63°   Wind: 5mph
Humidity: 99%   Direction: 280°W
Pressure: 29.96"   Gusts: NA
Location:  32.08°N, 81.09°W
Report Text: KSVN 301158Z AUTO 28004KT 10SM FEW090 SCT100 17/17 A2996 RMK AO2 SLP148 T01740173 10206 20174 52010
Loading
Personal Weather Stations






























Interactive Weather Map
Tropical Storm Tracking
New forecast layout! Learn more

10-Day Weather Forecast

Advertisements
Track Severe Weather on mobile